createdAt,value
2023-03-27T00:00:22.883Z,500.00
2023-03-27T00:04:23.097Z,400.00
2023-03-27T00:08:23.033Z,462.00
2023-03-27T00:12:22.994Z,503.00
2023-03-27T00:16:22.953Z,504.00
2023-03-27T00:20:22.845Z,506.00
2023-03-27T00:24:22.786Z,503.00
2023-03-27T00:28:22.757Z,507.00
2023-03-27T00:32:22.911Z,512.00
2023-03-27T00:36:22.839Z,520.00
2023-03-27T00:40:22.779Z,514.00
2023-03-27T00:44:22.780Z,505.00
2023-03-27T00:48:22.702Z,505.00
2023-03-27T00:52:22.649Z,509.00
2023-03-27T00:56:22.616Z,515.00
2023-03-27T01:00:22.706Z,516.00
2023-03-27T01:04:22.612Z,521.00
2023-03-27T01:08:22.565Z,513.00
2023-03-27T01:12:22.505Z,506.00
2023-03-27T01:16:22.563Z,510.00
2023-03-27T01:20:22.420Z,514.00
2023-03-27T01:24:22.382Z,516.00
2023-03-27T01:28:22.514Z,519.00
2023-03-27T01:32:22.598Z,521.00
2023-03-27T01:36:22.441Z,512.00
2023-03-27T01:40:22.422Z,516.00
2023-03-27T01:44:22.368Z,518.00
2023-03-27T01:48:22.366Z,514.00
2023-03-27T01:52:22.318Z,513.00
2023-03-27T01:56:22.572Z,518.00
2023-03-27T02:00:22.547Z,512.00
2023-03-27T02:04:22.612Z,508.00
2023-03-27T02:08:22.170Z,516.00
2023-03-27T02:12:22.145Z,519.00
2023-03-27T02:16:22.350Z,516.00
2023-03-27T02:20:22.292Z,516.00
2023-03-27T02:24:22.235Z,512.00
2023-03-27T02:28:22.186Z,521.00
2023-03-27T02:32:22.656Z,514.00
2023-03-27T02:36:22.614Z,512.00
2023-03-27T02:40:22.081Z,519.00
2023-03-27T02:44:22.246Z,522.00
2023-03-27T02:48:22.402Z,517.00
2023-03-27T02:52:22.401Z,519.00
2023-03-27T02:56:22.325Z,513.00
2023-03-27T03:00:22.293Z,515.00
2023-03-27T03:04:22.217Z,519.00
2023-03-27T03:08:22.199Z,510.00
2023-03-27T03:12:22.108Z,515.00
2023-03-27T03:16:22.261Z,518.00
2023-03-27T03:20:22.421Z,515.00
2023-03-27T03:24:22.435Z,522.00
2023-03-27T03:28:22.362Z,502.00
2023-03-27T03:32:22.384Z,528.00
2023-03-27T03:36:22.288Z,516.00
2023-03-27T03:40:22.268Z,511.00
2023-03-27T03:44:22.223Z,518.00
2023-03-27T03:48:22.252Z,519.00
2023-03-27T03:52:22.189Z,513.00
2023-03-27T03:56:22.144Z,514.00
2023-03-27T04:00:22.605Z,514.00
2023-03-27T04:04:22.191Z,511.00
2023-03-27T04:08:22.016Z,522.00
2023-03-27T04:12:22.636Z,523.00
2023-03-27T04:16:22.706Z,503.00
2023-03-27T04:20:22.163Z,513.00
2023-03-27T04:24:22.060Z,512.00
2023-03-27T04:28:22.083Z,522.00
2023-03-27T04:32:22.306Z,507.00
2023-03-27T04:36:22.240Z,520.00
2023-03-27T04:40:22.159Z,518.00
2023-03-27T04:44:22.122Z,519.00
2023-03-27T04:48:22.073Z,513.00
2023-03-27T04:52:22.205Z,514.00
2023-03-27T05:00:21.165Z,517.00
2023-03-27T05:04:22.157Z,518.00
2023-03-27T05:08:22.180Z,525.00
2023-03-27T05:12:22.215Z,526.00
2023-03-27T05:16:22.766Z,526.00
2023-03-27T05:20:22.251Z,520.00
2023-03-27T05:24:22.183Z,546.00
2023-03-27T05:28:22.182Z,553.00
2023-03-27T05:32:22.823Z,580.00
2023-03-27T05:36:22.469Z,616.00
2023-03-27T05:40:22.686Z,634.00
2023-03-27T05:44:23.185Z,1078.00
2023-03-27T05:48:23.215Z,964.00
2023-03-27T05:52:23.203Z,1013.00
2023-03-27T05:56:23.127Z,1094.00
2023-03-27T06:00:23.184Z,1233.00
2023-03-27T06:04:23.292Z,1299.00
2023-03-27T06:08:23.205Z,1417.00
2023-03-27T06:12:22.781Z,1531.00
2023-03-27T06:16:22.849Z,1634.00
2023-03-27T06:20:22.610Z,1699.00
2023-03-27T06:24:22.680Z,1755.00
2023-03-27T06:28:22.482Z,1807.00
2023-03-27T06:32:22.733Z,1866.00
2023-03-27T06:36:25.957Z,1970.00
2023-03-27T06:40:22.727Z,1991.00
2023-03-27T06:44:22.209Z,2048.00
2023-03-27T06:48:22.725Z,2088.00
2023-03-27T06:52:22.345Z,2099.00
2023-03-27T06:56:22.196Z,2156.00
2023-03-27T07:00:22.228Z,2169.00
2023-03-27T07:04:22.199Z,2166.00
2023-03-27T07:08:24.781Z,2203.00
2023-03-27T07:12:21.492Z,2218.00
2023-03-27T07:16:21.773Z,2272.00
2023-03-27T07:20:21.700Z,1299.00
2023-03-27T07:24:21.275Z,595.00
2023-03-27T07:28:21.701Z,885.00
2023-03-27T07:32:34.094Z,1141.00
2023-03-27T07:36:21.704Z,1260.00
2023-03-27T07:40:29.355Z,1513.00
2023-03-27T07:44:21.116Z,1589.00
2023-03-27T07:48:21.209Z,1708.00
2023-03-27T07:52:21.302Z,1737.00
2023-03-27T07:56:21.261Z,1785.00
2023-03-27T08:00:21.780Z,1781.00
2023-03-27T08:04:21.442Z,955.00
2023-03-27T08:08:21.310Z,565.00
2023-03-27T08:12:20.883Z,486.00
2023-03-27T08:16:20.758Z,504.00
2023-03-27T08:20:20.741Z,498.00
2023-03-27T08:24:20.752Z,504.00
2023-03-27T08:28:20.505Z,487.00
2023-03-27T08:32:20.825Z,568.00
2023-03-27T08:36:20.756Z,1103.00
2023-03-27T08:40:20.856Z,1353.00
2023-03-27T08:44:20.404Z,1648.00
2023-03-27T08:48:21.874Z,1842.00
2023-03-27T08:52:22.267Z,2015.00
2023-03-27T08:56:20.479Z,2112.00
2023-03-27T09:00:20.528Z,2303.00
2023-03-27T09:04:19.854Z,2418.00
2023-03-27T09:08:19.837Z,2521.00
2023-03-27T09:12:19.832Z,2592.00
2023-03-27T09:16:19.888Z,2661.00
2023-03-27T09:20:19.763Z,2727.00
2023-03-27T09:24:19.806Z,2797.00
2023-03-27T09:28:29.269Z,1694.00
2023-03-27T09:32:19.838Z,1305.00
2023-03-27T09:36:19.746Z,500.00
2023-03-27T09:40:19.797Z,755.00
2023-03-27T09:44:20.303Z,1232.00
2023-03-27T09:48:19.861Z,1583.00
2023-03-27T09:52:19.643Z,1756.00
2023-03-27T09:56:20.520Z,1941.00
2023-03-27T10:00:19.832Z,2118.00
2023-03-27T10:04:20.570Z,2247.00
2023-03-27T10:08:20.050Z,2364.00
2023-03-27T10:12:19.862Z,2485.00
2023-03-27T10:16:19.931Z,2579.00
2023-03-27T10:20:19.836Z,2697.00
2023-03-27T10:24:19.620Z,2751.00
2023-03-27T10:28:19.836Z,2715.00
2023-03-27T10:32:20.796Z,2711.00
2023-03-27T10:36:20.852Z,2750.00
2023-03-27T10:40:19.659Z,2877.00
2023-03-27T10:44:20.372Z,2999.00
2023-03-27T10:48:19.857Z,3082.00
2023-03-27T10:52:19.941Z,3137.00
2023-03-27T10:56:19.916Z,3178.00
2023-03-27T11:00:19.560Z,3237.00
2023-03-27T11:04:19.401Z,3270.00
2023-03-27T11:08:19.360Z,3305.00
2023-03-27T11:12:19.355Z,3387.00
2023-03-27T11:16:19.177Z,3379.00
2023-03-27T11:20:19.422Z,3392.00
2023-03-27T11:24:19.356Z,3326.00
2023-03-27T11:28:19.923Z,2634.00
2023-03-27T11:32:19.843Z,2335.00
2023-03-27T11:36:19.450Z,2125.00
2023-03-27T11:40:19.839Z,1835.00
2023-03-27T11:44:20.760Z,1658.00
2023-03-27T11:48:20.372Z,1481.00
2023-03-27T11:52:20.379Z,1292.00
2023-03-27T11:56:20.425Z,1353.00
2023-03-27T12:00:20.343Z,728.00
2023-03-27T12:04:20.441Z,1128.00
2023-03-27T12:08:20.519Z,1612.00
2023-03-27T12:12:20.441Z,1833.00
2023-03-27T12:16:20.907Z,2039.00
2023-03-27T12:20:19.929Z,2213.00
2023-03-27T12:24:19.657Z,2335.00
2023-03-27T12:28:23.103Z,2469.00
2023-03-27T12:32:19.908Z,2557.00
2023-03-27T12:36:19.389Z,2732.00
2023-03-27T12:40:19.930Z,2828.00
2023-03-27T12:44:19.901Z,2122.00
2023-03-27T12:48:19.698Z,1062.00
2023-03-27T12:52:20.038Z,617.00
2023-03-27T12:56:19.875Z,533.00
2023-03-27T13:00:20.441Z,509.00
2023-03-27T13:04:21.174Z,627.00
2023-03-27T13:08:20.495Z,1157.00
2023-03-27T13:12:20.861Z,1502.00
2023-03-27T13:16:20.924Z,1600.00
2023-03-27T13:20:20.951Z,1705.00
2023-03-27T13:24:20.481Z,1762.00
2023-03-27T13:28:20.879Z,1884.00
2023-03-27T13:32:20.439Z,1925.00
2023-03-27T13:36:20.397Z,1936.00
2023-03-27T13:40:20.246Z,1974.00
2023-03-27T13:44:20.396Z,1980.00
2023-03-27T13:48:20.457Z,2021.00
2023-03-27T13:52:20.078Z,2040.00
2023-03-27T13:56:20.392Z,2053.00
2023-03-27T14:00:20.464Z,2114.00
2023-03-27T14:04:20.463Z,2100.00
2023-03-27T14:08:20.432Z,2130.00
2023-03-27T14:12:20.401Z,2137.00
2023-03-27T14:16:20.277Z,2151.00
2023-03-27T14:20:20.925Z,2190.00
2023-03-27T14:24:20.499Z,2181.00
2023-03-27T14:28:20.433Z,2174.00
2023-03-27T14:32:20.086Z,2196.00
2023-03-27T14:36:20.435Z,2210.00
2023-03-27T14:40:20.572Z,2216.00
2023-03-27T14:44:20.165Z,2232.00
2023-03-27T14:48:20.809Z,2252.00
2023-03-27T14:52:20.064Z,2265.00
2023-03-27T14:56:20.401Z,2219.00
2023-03-27T15:00:20.046Z,2269.00
2023-03-27T15:04:20.579Z,2241.00
2023-03-27T15:08:19.942Z,2241.00
2023-03-27T15:12:19.938Z,2234.00
2023-03-27T15:16:19.931Z,2203.00
2023-03-27T15:20:20.403Z,2217.00
2023-03-27T15:24:20.097Z,2221.00
2023-03-27T15:28:20.398Z,2205.00
2023-03-27T15:32:19.941Z,2200.00
2023-03-27T15:36:19.856Z,2187.00
2023-03-27T15:40:19.844Z,2186.00
2023-03-27T15:44:19.850Z,2140.00
2023-03-27T15:48:19.934Z,2166.00
2023-03-27T15:52:19.755Z,2156.00
2023-03-27T15:56:19.727Z,2110.00
2023-03-27T16:00:20.123Z,2121.00
2023-03-27T16:04:19.771Z,2113.00
2023-03-27T16:08:19.684Z,2085.00
2023-03-27T16:12:19.842Z,2105.00
2023-03-27T16:16:19.706Z,2060.00
2023-03-27T16:20:19.561Z,2090.00
2023-03-27T16:24:19.503Z,2048.00
2023-03-27T16:28:19.488Z,2062.00
2023-03-27T16:32:19.482Z,2052.00
2023-03-27T16:36:19.433Z,2061.00
2023-03-27T16:40:19.399Z,2105.00
2023-03-27T16:44:19.387Z,2215.00
2023-03-27T16:48:19.318Z,2233.00
2023-03-27T16:52:19.263Z,2252.00
2023-03-27T16:56:19.468Z,2212.00
2023-03-27T17:00:19.677Z,2195.00
2023-03-27T17:04:19.896Z,2183.00
2023-03-27T17:08:19.899Z,2142.00
2023-03-27T17:12:19.781Z,2160.00
2023-03-27T17:16:19.745Z,2127.00
2023-03-27T17:20:19.675Z,2080.00
2023-03-27T17:24:19.702Z,2095.00
2023-03-27T17:28:19.629Z,2082.00
2023-03-27T17:32:19.581Z,2053.00
2023-03-27T17:36:26.875Z,2047.00
2023-03-27T17:40:19.425Z,2041.00
2023-03-27T17:44:19.417Z,1972.00
2023-03-27T17:48:19.406Z,1975.00
2023-03-27T17:52:19.290Z,1967.00
2023-03-27T17:56:19.235Z,1978.00
2023-03-27T18:00:19.157Z,1926.00
2023-03-27T18:04:19.232Z,1902.00
2023-03-27T18:08:19.418Z,1914.00
2023-03-27T18:12:19.342Z,1900.00
2023-03-27T18:16:19.344Z,1898.00
2023-03-27T18:20:19.478Z,1839.00
2023-03-27T18:24:19.226Z,1874.00
2023-03-27T18:28:19.206Z,1794.00
2023-03-27T18:32:19.124Z,1824.00
2023-03-27T18:36:19.463Z,1738.00
2023-03-27T18:40:19.343Z,1746.00
2023-03-27T18:44:19.236Z,1706.00
2023-03-27T18:48:19.231Z,1730.00
2023-03-27T18:52:19.294Z,1719.00
2023-03-27T18:56:19.080Z,1690.00
2023-03-27T19:00:19.028Z,1678.00
2023-03-27T19:04:18.057Z,1642.00
2023-03-27T19:08:19.073Z,1631.00
2023-03-27T19:12:19.028Z,1612.00
2023-03-27T19:16:19.014Z,1612.00
2023-03-27T19:20:18.929Z,1593.00
2023-03-27T19:24:18.898Z,1572.00
2023-03-27T19:28:18.877Z,1573.00
2023-03-27T19:32:18.818Z,1566.00
2023-03-27T19:36:18.810Z,1551.00
2023-03-27T19:40:18.807Z,1515.00
2023-03-27T19:44:18.675Z,1526.00
2023-03-27T19:48:19.565Z,1498.00
2023-03-27T19:52:18.929Z,1510.00
2023-03-27T19:56:19.101Z,1481.00
2023-03-27T20:00:19.292Z,1495.00
2023-03-27T20:04:19.480Z,1503.00
2023-03-27T20:08:19.448Z,1432.00
2023-03-27T20:12:19.347Z,1457.00
2023-03-27T20:16:19.342Z,1476.00
2023-03-27T20:20:19.268Z,1460.00
2023-03-27T20:24:19.224Z,1494.00
2023-03-27T20:28:19.153Z,1516.00
2023-03-27T20:32:19.249Z,1472.00
2023-03-27T20:36:19.496Z,1460.00
2023-03-27T20:40:19.706Z,1448.00
2023-03-27T20:44:19.589Z,1436.00
2023-03-27T20:48:19.518Z,1467.00
2023-03-27T20:52:19.466Z,1407.00
2023-03-27T20:56:19.424Z,1429.00
2023-03-27T21:00:19.385Z,1409.00
2023-03-27T21:04:19.329Z,1419.00
2023-03-27T21:08:19.375Z,1330.00
2023-03-27T21:12:19.385Z,1369.00
2023-03-27T21:16:19.411Z,1386.00
2023-03-27T21:20:19.253Z,1394.00
2023-03-27T21:24:19.230Z,1372.00
2023-03-27T21:28:19.150Z,1335.00
2023-03-27T21:32:19.915Z,1334.00
2023-03-27T21:36:19.230Z,1320.00
2023-03-27T21:40:19.401Z,1326.00
2023-03-27T21:44:19.366Z,1322.00
2023-03-27T21:48:19.349Z,1335.00
2023-03-27T21:52:19.250Z,1312.00
2023-03-27T21:56:19.239Z,1281.00
2023-03-27T22:00:19.151Z,1286.00
2023-03-27T22:04:21.609Z,1291.00
2023-03-27T22:08:19.068Z,1274.00
2023-03-27T22:12:19.056Z,1286.00
2023-03-27T22:16:19.091Z,1263.00
2023-03-27T22:20:18.991Z,1281.00
2023-03-27T22:24:18.854Z,1273.00
2023-03-27T22:28:18.862Z,1254.00
2023-03-27T22:32:18.872Z,1243.00
2023-03-27T22:36:18.853Z,1260.00
2023-03-27T22:40:18.799Z,1241.00
2023-03-27T22:44:18.783Z,1205.00
2023-03-27T22:48:18.756Z,1209.00
2023-03-27T22:52:18.734Z,1207.00
2023-03-27T22:56:18.653Z,1224.00
2023-03-27T23:00:18.621Z,1199.00
2023-03-27T23:56:24.182Z,500.00
